sensor_id;sensor_type;location;lat;lon;timestamp;P1;durP1;ratioP1;P2;durP2;ratioP2
10493;SDS011;5294;49.410;8.698;2022-09-17T00:00:48;2.10;;;1.70;;
10493;SDS011;5294;49.410;8.698;2022-09-17T00:03:14;1.60;;;1.50;;
10493;SDS011;5294;49.410;8.698;2022-09-17T00:05:40;1.43;;;1.33;;
10493;SDS011;5294;49.410;8.698;2022-09-17T00:08:08;1.90;;;1.80;;
10493;SDS011;5294;49.410;8.698;2022-09-17T00:10:43;1.53;;;1.43;;
10493;SDS011;5294;49.410;8.698;2022-09-17T00:13:11;1.93;;;1.83;;
10493;SDS011;5294;49.410;8.698;2022-09-17T00:15:38;2.60;;;2.10;;
10493;SDS011;5294;49.410;8.698;2022-09-17T00:18:05;1.53;;;1.43;;
10493;SDS011;5294;49.410;8.698;2022-09-17T00:20:31;2.23;;;1.60;;
10493;SDS011;5294;49.410;8.698;2022-09-17T00:22:57;2.23;;;1.87;;
10493;SDS011;5294;49.410;8.698;2022-09-17T00:25:25;2.33;;;1.57;;
10493;SDS011;5294;49.410;8.698;2022-09-17T00:27:51;1.80;;;1.70;;
10493;SDS011;5294;49.410;8.698;2022-09-17T00:30:17;1.67;;;1.57;;
10493;SDS011;5294;49.410;8.698;2022-09-17T00:32:43;3.30;;;1.83;;
10493;SDS011;5294;49.410;8.698;2022-09-17T00:35:09;1.60;;;1.50;;
10493;SDS011;5294;49.410;8.698;2022-09-17T00:37:35;2.73;;;1.97;;
10493;SDS011;5294;49.410;8.698;2022-09-17T00:40:01;3.53;;;1.67;;
10493;SDS011;5294;49.410;8.698;2022-09-17T00:42:29;2.67;;;2.30;;
10493;SDS011;5294;49.410;8.698;2022-09-17T00:44:56;2.83;;;2.50;;
10493;SDS011;5294;49.410;8.698;2022-09-17T00:47:29;1.97;;;1.67;;
10493;SDS011;5294;49.410;8.698;2022-09-17T00:50:00;1.63;;;1.60;;
10493;SDS011;5294;49.410;8.698;2022-09-17T00:52:28;1.73;;;1.50;;
10493;SDS011;5294;49.410;8.698;2022-09-17T00:55:05;1.67;;;1.57;;
10493;SDS011;5294;49.410;8.698;2022-09-17T00:57:32;2.10;;;1.90;;
10493;SDS011;5294;49.410;8.698;2022-09-17T00:59:58;1.87;;;1.77;;
10493;SDS011;5294;49.410;8.698;2022-09-17T01:02:25;1.93;;;1.83;;
10493;SDS011;5294;49.410;8.698;2022-09-17T01:04:51;2.47;;;2.27;;
10493;SDS011;5294;49.410;8.698;2022-09-17T01:07:24;2.87;;;2.10;;
10493;SDS011;5294;49.410;8.698;2022-09-17T01:09:54;1.80;;;1.70;;
10493;SDS011;5294;49.410;8.698;2022-09-17T01:12:42;2.17;;;1.70;;
10493;SDS011;5294;49.410;8.698;2022-09-17T01:28:45;2.10;;;1.90;;
10493;SDS011;5294;49.410;8.698;2022-09-17T01:31:17;3.13;;;1.70;;
10493;SDS011;5294;49.410;8.698;2022-09-17T01:49:07;2.93;;;2.30;;
10493;SDS011;5294;49.410;8.698;2022-09-17T01:51:39;3.00;;;1.77;;
10493;SDS011;5294;49.410;8.698;2022-09-17T01:54:14;4.83;;;2.37;;
10493;SDS011;5294;49.410;8.698;2022-09-17T01:56:43;2.67;;;2.00;;
10493;SDS011;5294;49.410;8.698;2022-09-17T02:01:40;2.23;;;2.00;;
10493;SDS011;5294;49.410;8.698;2022-09-17T02:04:10;2.67;;;1.93;;
10493;SDS011;5294;49.410;8.698;2022-09-17T02:06:39;2.90;;;2.00;;
10493;SDS011;5294;49.410;8.698;2022-09-17T02:09:17;2.57;;;2.00;;
10493;SDS011;5294;49.410;8.698;2022-09-17T02:11:45;4.20;;;2.77;;
10493;SDS011;5294;49.410;8.698;2022-09-17T02:14:16;2.50;;;2.30;;
10493;SDS011;5294;49.410;8.698;2022-09-17T02:16:48;2.10;;;1.90;;
10493;SDS011;5294;49.410;8.698;2022-09-17T02:19:22;3.20;;;2.00;;
10493;SDS011;5294;49.410;8.698;2022-09-17T02:21:52;2.73;;;2.17;;
10493;SDS011;5294;49.410;8.698;2022-09-17T02:24:23;3.47;;;1.90;;
10493;SDS011;5294;49.410;8.698;2022-09-17T02:26:51;2.60;;;1.97;;
10493;SDS011;5294;49.410;8.698;2022-09-17T02:29:30;3.10;;;2.20;;
10493;SDS011;5294;49.410;8.698;2022-09-17T02:31:57;2.20;;;1.93;;
10493;SDS011;5294;49.410;8.698;2022-09-17T02:34:24;3.90;;;1.63;;
10493;SDS011;5294;49.410;8.698;2022-09-17T02:36:53;1.97;;;1.77;;
10493;SDS011;5294;49.410;8.698;2022-09-17T02:39:22;3.37;;;1.93;;
10493;SDS011;5294;49.410;8.698;2022-09-17T02:44:21;4.17;;;2.00;;
10493;SDS011;5294;49.410;8.698;2022-09-17T02:47:04;3.50;;;2.20;;
10493;SDS011;5294;49.410;8.698;2022-09-17T02:57:19;2.73;;;1.70;;
10493;SDS011;5294;49.410;8.698;2022-09-17T03:02:46;2.90;;;2.60;;
10493;SDS011;5294;49.410;8.698;2022-09-17T03:05:13;2.67;;;2.20;;
10493;SDS011;5294;49.410;8.698;2022-09-17T03:07:41;4.73;;;2.70;;
10493;SDS011;5294;49.410;8.698;2022-09-17T03:10:07;5.60;;;2.83;;
10493;SDS011;5294;49.410;8.698;2022-09-17T03:12:34;2.90;;;2.70;;
10493;SDS011;5294;49.410;8.698;2022-09-17T03:15:03;4.10;;;3.03;;
10493;SDS011;5294;49.410;8.698;2022-09-17T03:17:29;4.30;;;3.23;;
10493;SDS011;5294;49.410;8.698;2022-09-17T03:19:55;5.53;;;3.67;;
10493;SDS011;5294;49.410;8.698;2022-09-17T03:22:26;4.60;;;4.03;;
10493;SDS011;5294;49.410;8.698;2022-09-17T03:24:52;5.73;;;3.50;;
10493;SDS011;5294;49.410;8.698;2022-09-17T03:27:17;5.20;;;3.37;;
10493;SDS011;5294;49.410;8.698;2022-09-17T03:29:46;3.43;;;2.97;;
10493;SDS011;5294;49.410;8.698;2022-09-17T03:32:12;3.17;;;2.90;;
10493;SDS011;5294;49.410;8.698;2022-09-17T03:34:38;3.77;;;3.10;;
10493;SDS011;5294;49.410;8.698;2022-09-17T03:37:06;4.30;;;3.53;;
10493;SDS011;5294;49.410;8.698;2022-09-17T03:39:32;3.97;;;3.43;;
10493;SDS011;5294;49.410;8.698;2022-09-17T03:42:01;4.10;;;3.70;;
10493;SDS011;5294;49.410;8.698;2022-09-17T03:44:27;4.03;;;3.67;;
10493;SDS011;5294;49.410;8.698;2022-09-17T03:46:53;5.43;;;3.80;;
10493;SDS011;5294;49.410;8.698;2022-09-17T03:49:21;4.43;;;3.60;;
10493;SDS011;5294;49.410;8.698;2022-09-17T03:51:48;4.67;;;3.60;;
10493;SDS011;5294;49.410;8.698;2022-09-17T03:54:14;4.00;;;3.20;;
10493;SDS011;5294;49.410;8.698;2022-09-17T03:56:42;3.87;;;3.33;;
10493;SDS011;5294;49.410;8.698;2022-09-17T03:59:11;3.70;;;3.33;;
10493;SDS011;5294;49.410;8.698;2022-09-17T04:01:36;4.37;;;3.70;;
10493;SDS011;5294;49.410;8.698;2022-09-17T04:04:05;3.47;;;3.17;;
10493;SDS011;5294;49.410;8.698;2022-09-17T04:06:33;4.57;;;3.60;;
10493;SDS011;5294;49.410;8.698;2022-09-17T04:08:59;3.23;;;2.87;;
10493;SDS011;5294;49.410;8.698;2022-09-17T04:11:28;3.83;;;3.30;;
10493;SDS011;5294;49.410;8.698;2022-09-17T04:13:54;4.77;;;3.00;;
10493;SDS011;5294;49.410;8.698;2022-09-17T04:16:19;3.07;;;2.83;;
10493;SDS011;5294;49.410;8.698;2022-09-17T04:18:46;3.70;;;2.90;;
10493;SDS011;5294;49.410;8.698;2022-09-17T04:21:16;3.93;;;2.60;;
10493;SDS011;5294;49.410;8.698;2022-09-17T04:23:44;3.03;;;2.60;;
10493;SDS011;5294;49.410;8.698;2022-09-17T04:26:10;3.20;;;2.07;;
10493;SDS011;5294;49.410;8.698;2022-09-17T04:28:36;2.73;;;2.20;;
10493;SDS011;5294;49.410;8.698;2022-09-17T04:31:05;4.13;;;2.37;;
10493;SDS011;5294;49.410;8.698;2022-09-17T04:33:33;2.97;;;2.30;;
10493;SDS011;5294;49.410;8.698;2022-09-17T04:35:59;3.00;;;2.10;;
10493;SDS011;5294;49.410;8.698;2022-09-17T04:38:25;3.43;;;2.20;;
10493;SDS011;5294;49.410;8.698;2022-09-17T04:40:54;3.23;;;2.30;;
10493;SDS011;5294;49.410;8.698;2022-09-17T04:43:22;3.33;;;1.87;;
10493;SDS011;5294;49.410;8.698;2022-09-17T04:45:48;5.73;;;2.30;;
10493;SDS011;5294;49.410;8.698;2022-09-17T04:48:14;2.83;;;2.50;;
10493;SDS011;5294;49.410;8.698;2022-09-17T04:50:41;4.73;;;2.53;;
10493;SDS011;5294;49.410;8.698;2022-09-17T04:53:07;4.23;;;2.20;;
10493;SDS011;5294;49.410;8.698;2022-09-17T04:55:33;2.20;;;2.00;;
10493;SDS011;5294;49.410;8.698;2022-09-17T04:57:59;2.97;;;2.10;;
10493;SDS011;5294;49.410;8.698;2022-09-17T05:00:27;4.53;;;2.30;;
10493;SDS011;5294;49.410;8.698;2022-09-17T05:02:53;4.07;;;2.20;;
10493;SDS011;5294;49.410;8.698;2022-09-17T05:05:19;3.13;;;2.13;;
10493;SDS011;5294;49.410;8.698;2022-09-17T05:07:45;3.00;;;2.17;;
10493;SDS011;5294;49.410;8.698;2022-09-17T05:10:12;2.57;;;2.27;;
10493;SDS011;5294;49.410;8.698;2022-09-17T05:12:38;2.83;;;2.10;;
10493;SDS011;5294;49.410;8.698;2022-09-17T05:15:04;2.60;;;2.40;;
10493;SDS011;5294;49.410;8.698;2022-09-17T05:17:30;5.63;;;2.37;;
10493;SDS011;5294;49.410;8.698;2022-09-17T05:19:56;4.93;;;2.53;;
10493;SDS011;5294;49.410;8.698;2022-09-17T05:22:25;2.77;;;2.30;;
10493;SDS011;5294;49.410;8.698;2022-09-17T05:24:51;4.90;;;2.47;;
10493;SDS011;5294;49.410;8.698;2022-09-17T05:27:16;3.30;;;2.40;;
10493;SDS011;5294;49.410;8.698;2022-09-17T05:29:43;2.90;;;2.47;;
10493;SDS011;5294;49.410;8.698;2022-09-17T05:32:09;3.63;;;2.50;;
10493;SDS011;5294;49.410;8.698;2022-09-17T05:34:35;3.13;;;2.57;;
10493;SDS011;5294;49.410;8.698;2022-09-17T05:37:01;4.00;;;2.63;;
10493;SDS011;5294;49.410;8.698;2022-09-17T05:39:27;3.17;;;2.50;;
10493;SDS011;5294;49.410;8.698;2022-09-17T05:41:55;4.90;;;2.70;;
10493;SDS011;5294;49.410;8.698;2022-09-17T05:44:21;5.60;;;2.87;;
10493;SDS011;5294;49.410;8.698;2022-09-17T05:46:47;2.90;;;2.60;;
10493;SDS011;5294;49.410;8.698;2022-09-17T05:49:15;3.33;;;2.50;;
10493;SDS011;5294;49.410;8.698;2022-09-17T05:51:41;2.90;;;2.60;;
10493;SDS011;5294;49.410;8.698;2022-09-17T05:54:07;5.90;;;3.30;;
10493;SDS011;5294;49.410;8.698;2022-09-17T05:56:36;4.50;;;2.60;;
10493;SDS011;5294;49.410;8.698;2022-09-17T05:59:02;3.67;;;2.83;;
10493;SDS011;5294;49.410;8.698;2022-09-17T06:01:28;5.67;;;3.17;;
10493;SDS011;5294;49.410;8.698;2022-09-17T06:03:56;4.10;;;2.70;;
10493;SDS011;5294;49.410;8.698;2022-09-17T06:06:22;5.27;;;3.00;;
10493;SDS011;5294;49.410;8.698;2022-09-17T06:08:48;4.43;;;3.10;;
10493;SDS011;5294;49.410;8.698;2022-09-17T06:11:14;3.10;;;2.80;;
10493;SDS011;5294;49.410;8.698;2022-09-17T06:13:40;4.50;;;3.30;;
10493;SDS011;5294;49.410;8.698;2022-09-17T06:16:07;4.27;;;3.30;;
10493;SDS011;5294;49.410;8.698;2022-09-17T06:18:33;4.97;;;2.83;;
10493;SDS011;5294;49.410;8.698;2022-09-17T06:21:03;4.03;;;3.03;;
10493;SDS011;5294;49.410;8.698;2022-09-17T06:23:32;4.53;;;2.83;;
10493;SDS011;5294;49.410;8.698;2022-09-17T06:25:59;3.27;;;2.70;;
10493;SDS011;5294;49.410;8.698;2022-09-17T06:28:26;4.27;;;2.73;;
10493;SDS011;5294;49.410;8.698;2022-09-17T06:30:52;4.17;;;2.87;;
10493;SDS011;5294;49.410;8.698;2022-09-17T06:33:21;3.80;;;2.47;;
10493;SDS011;5294;49.410;8.698;2022-09-17T06:35:48;4.13;;;2.80;;
10493;SDS011;5294;49.410;8.698;2022-09-17T06:38:14;4.33;;;2.73;;
10493;SDS011;5294;49.410;8.698;2022-09-17T06:40:40;4.07;;;2.80;;
10493;SDS011;5294;49.410;8.698;2022-09-17T06:43:06;3.73;;;2.83;;
10493;SDS011;5294;49.410;8.698;2022-09-17T06:45:34;3.97;;;2.80;;
10493;SDS011;5294;49.410;8.698;2022-09-17T06:48:02;4.63;;;3.10;;
10493;SDS011;5294;49.410;8.698;2022-09-17T06:50:29;5.57;;;2.60;;
10493;SDS011;5294;49.410;8.698;2022-09-17T06:52:55;4.63;;;2.63;;
10493;SDS011;5294;49.410;8.698;2022-09-17T06:55:21;5.97;;;3.23;;
10493;SDS011;5294;49.410;8.698;2022-09-17T06:57:47;3.90;;;2.90;;
10493;SDS011;5294;49.410;8.698;2022-09-17T07:00:13;2.47;;;2.27;;
10493;SDS011;5294;49.410;8.698;2022-09-17T07:02:39;3.90;;;2.80;;
10493;SDS011;5294;49.410;8.698;2022-09-17T07:05:05;2.97;;;2.60;;
10493;SDS011;5294;49.410;8.698;2022-09-17T07:07:32;4.70;;;3.20;;
10493;SDS011;5294;49.410;8.698;2022-09-17T07:10:03;3.27;;;2.83;;
10493;SDS011;5294;49.410;8.698;2022-09-17T07:12:29;5.87;;;3.30;;
10493;SDS011;5294;49.410;8.698;2022-09-17T07:14:55;3.63;;;3.00;;
10493;SDS011;5294;49.410;8.698;2022-09-17T07:17:21;4.73;;;3.30;;
10493;SDS011;5294;49.410;8.698;2022-09-17T07:19:47;5.60;;;3.23;;
10493;SDS011;5294;49.410;8.698;2022-09-17T07:22:13;5.90;;;3.23;;
10493;SDS011;5294;49.410;8.698;2022-09-17T07:24:39;4.70;;;3.27;;
10493;SDS011;5294;49.410;8.698;2022-09-17T07:27:05;4.83;;;3.03;;
10493;SDS011;5294;49.410;8.698;2022-09-17T07:29:31;4.67;;;3.00;;
10493;SDS011;5294;49.410;8.698;2022-09-17T07:31:59;5.47;;;3.30;;
10493;SDS011;5294;49.410;8.698;2022-09-17T07:34:25;6.47;;;3.33;;
10493;SDS011;5294;49.410;8.698;2022-09-17T07:36:53;5.37;;;3.10;;
10493;SDS011;5294;49.410;8.698;2022-09-17T07:39:18;7.63;;;3.53;;
10493;SDS011;5294;49.410;8.698;2022-09-17T07:41:44;6.43;;;3.30;;
10493;SDS011;5294;49.410;8.698;2022-09-17T07:44:10;5.67;;;3.63;;
10493;SDS011;5294;49.410;8.698;2022-09-17T07:46:36;6.13;;;3.50;;
10493;SDS011;5294;49.410;8.698;2022-09-17T07:49:02;6.53;;;3.50;;
10493;SDS011;5294;49.410;8.698;2022-09-17T07:51:28;6.37;;;3.60;;
10493;SDS011;5294;49.410;8.698;2022-09-17T07:53:57;4.93;;;3.07;;
10493;SDS011;5294;49.410;8.698;2022-09-17T07:56:24;4.90;;;3.53;;
10493;SDS011;5294;49.410;8.698;2022-09-17T07:58:50;5.33;;;3.80;;
10493;SDS011;5294;49.410;8.698;2022-09-17T08:01:17;4.33;;;3.20;;
10493;SDS011;5294;49.410;8.698;2022-09-17T08:03:51;4.90;;;3.83;;
10493;SDS011;5294;49.410;8.698;2022-09-17T08:06:21;5.80;;;3.47;;
10493;SDS011;5294;49.410;8.698;2022-09-17T08:08:50;6.83;;;3.70;;
10493;SDS011;5294;49.410;8.698;2022-09-17T08:11:18;7.93;;;3.63;;
10493;SDS011;5294;49.410;8.698;2022-09-17T08:13:47;5.63;;;3.40;;
10493;SDS011;5294;49.410;8.698;2022-09-17T08:16:16;5.47;;;3.50;;
10493;SDS011;5294;49.410;8.698;2022-09-17T08:18:42;6.10;;;3.50;;
10493;SDS011;5294;49.410;8.698;2022-09-17T08:21:10;5.60;;;3.93;;
10493;SDS011;5294;49.410;8.698;2022-09-17T08:23:36;5.83;;;3.67;;
10493;SDS011;5294;49.410;8.698;2022-09-17T08:26:03;4.90;;;3.27;;
10493;SDS011;5294;49.410;8.698;2022-09-17T08:28:32;4.73;;;3.60;;
10493;SDS011;5294;49.410;8.698;2022-09-17T08:31:02;5.60;;;3.37;;
10493;SDS011;5294;49.410;8.698;2022-09-17T08:33:32;4.33;;;3.57;;
10493;SDS011;5294;49.410;8.698;2022-09-17T08:35:58;6.03;;;3.63;;
10493;SDS011;5294;49.410;8.698;2022-09-17T08:38:25;6.33;;;3.63;;
10493;SDS011;5294;49.410;8.698;2022-09-17T08:40:54;6.87;;;3.83;;
10493;SDS011;5294;49.410;8.698;2022-09-17T08:43:24;5.10;;;3.20;;
10493;SDS011;5294;49.410;8.698;2022-09-17T08:45:52;4.23;;;3.17;;
10493;SDS011;5294;49.410;8.698;2022-09-17T08:48:19;6.33;;;3.93;;
10493;SDS011;5294;49.410;8.698;2022-09-17T08:50:50;6.83;;;3.23;;
10493;SDS011;5294;49.410;8.698;2022-09-17T08:55:59;5.37;;;3.77;;
10493;SDS011;5294;49.410;8.698;2022-09-17T09:06:25;4.77;;;3.07;;
10493;SDS011;5294;49.410;8.698;2022-09-17T09:09:04;3.47;;;2.67;;
10493;SDS011;5294;49.410;8.698;2022-09-17T09:11:32;4.93;;;3.00;;
10493;SDS011;5294;49.410;8.698;2022-09-17T09:14:02;5.00;;;3.10;;
10493;SDS011;5294;49.410;8.698;2022-09-17T09:16:33;3.53;;;2.40;;
10493;SDS011;5294;49.410;8.698;2022-09-17T09:22:05;5.70;;;2.70;;
10493;SDS011;5294;49.410;8.698;2022-09-17T09:25:18;4.53;;;3.23;;
10493;SDS011;5294;49.410;8.698;2022-09-17T09:27:28;5.50;;;3.27;;
10493;SDS011;5294;49.410;8.698;2022-09-17T09:30:08;5.40;;;3.17;;
10493;SDS011;5294;49.410;8.698;2022-09-17T09:32:57;4.73;;;3.10;;
10493;SDS011;5294;49.410;8.698;2022-09-17T09:35:28;4.37;;;2.53;;
10493;SDS011;5294;49.410;8.698;2022-09-17T09:38:12;6.50;;;3.07;;
10493;SDS011;5294;49.410;8.698;2022-09-17T09:40:43;5.63;;;2.87;;
10493;SDS011;5294;49.410;8.698;2022-09-17T09:43:13;3.90;;;2.70;;
10493;SDS011;5294;49.410;8.698;2022-09-17T09:48:22;4.90;;;3.20;;
10493;SDS011;5294;49.410;8.698;2022-09-17T09:51:09;8.40;;;3.07;;
10493;SDS011;5294;49.410;8.698;2022-09-17T09:56:34;6.53;;;3.23;;
10493;SDS011;5294;49.410;8.698;2022-09-17T09:59:05;5.47;;;2.80;;
10493;SDS011;5294;49.410;8.698;2022-09-17T10:01:31;4.07;;;2.73;;
10493;SDS011;5294;49.410;8.698;2022-09-17T10:03:58;3.47;;;2.57;;
10493;SDS011;5294;49.410;8.698;2022-09-17T10:06:27;3.53;;;2.57;;
10493;SDS011;5294;49.410;8.698;2022-09-17T10:13:48;3.83;;;2.50;;
10493;SDS011;5294;49.410;8.698;2022-09-17T10:18:43;5.87;;;2.57;;
10493;SDS011;5294;49.410;8.698;2022-09-17T10:21:22;4.97;;;2.50;;
10493;SDS011;5294;49.410;8.698;2022-09-17T10:23:55;3.57;;;2.37;;
10493;SDS011;5294;49.410;8.698;2022-09-17T10:26:22;4.47;;;3.20;;
10493;SDS011;5294;49.410;8.698;2022-09-17T10:28:49;5.87;;;2.73;;
10493;SDS011;5294;49.410;8.698;2022-09-17T10:31:19;6.67;;;2.60;;
10493;SDS011;5294;49.410;8.698;2022-09-17T10:33:58;4.73;;;2.57;;
10493;SDS011;5294;49.410;8.698;2022-09-17T10:36:44;4.40;;;2.43;;
10493;SDS011;5294;49.410;8.698;2022-09-17T10:44:28;2.87;;;1.70;;
10493;SDS011;5294;49.410;8.698;2022-09-17T10:46:54;6.30;;;2.60;;
10493;SDS011;5294;49.410;8.698;2022-09-17T10:57:43;3.93;;;2.40;;
10493;SDS011;5294;49.410;8.698;2022-09-17T11:00:20;5.27;;;3.10;;
10493;SDS011;5294;49.410;8.698;2022-09-17T11:08:22;3.50;;;2.30;;
10493;SDS011;5294;49.410;8.698;2022-09-17T11:13:36;4.93;;;2.50;;
10493;SDS011;5294;49.410;8.698;2022-09-17T11:18:47;3.53;;;2.00;;
10493;SDS011;5294;49.410;8.698;2022-09-17T11:31:36;2.20;;;2.00;;
10493;SDS011;5294;49.410;8.698;2022-09-17T11:36:30;4.03;;;2.30;;
10493;SDS011;5294;49.410;8.698;2022-09-17T11:38:59;3.20;;;2.10;;
10493;SDS011;5294;49.410;8.698;2022-09-17T11:41:32;2.13;;;1.80;;
10493;SDS011;5294;49.410;8.698;2022-09-17T11:46:45;3.57;;;2.00;;
10493;SDS011;5294;49.410;8.698;2022-09-17T11:51:56;4.43;;;2.43;;
10493;SDS011;5294;49.410;8.698;2022-09-17T11:54:25;5.37;;;2.50;;
10493;SDS011;5294;49.410;8.698;2022-09-17T11:57:37;5.77;;;2.50;;
10493;SDS011;5294;49.410;8.698;2022-09-17T12:05:19;4.93;;;2.23;;
10493;SDS011;5294;49.410;8.698;2022-09-17T12:10:56;3.37;;;2.23;;
10493;SDS011;5294;49.410;8.698;2022-09-17T12:15:31;3.17;;;2.03;;
10493;SDS011;5294;49.410;8.698;2022-09-17T12:20:44;3.50;;;2.10;;
10493;SDS011;5294;49.410;8.698;2022-09-17T12:23:12;3.33;;;2.10;;
10493;SDS011;5294;49.410;8.698;2022-09-17T12:25:48;2.37;;;1.73;;
10493;SDS011;5294;49.410;8.698;2022-09-17T12:28:20;2.33;;;2.00;;
10493;SDS011;5294;49.410;8.698;2022-09-17T12:30:52;4.10;;;1.80;;
10493;SDS011;5294;49.410;8.698;2022-09-17T12:33:36;3.33;;;1.97;;
10493;SDS011;5294;49.410;8.698;2022-09-17T12:38:34;3.50;;;1.90;;
10493;SDS011;5294;49.410;8.698;2022-09-17T12:46:41;1.53;;;1.43;;
10493;SDS011;5294;49.410;8.698;2022-09-17T12:59:18;2.10;;;1.67;;
10493;SDS011;5294;49.410;8.698;2022-09-17T13:01:49;2.73;;;1.60;;
10493;SDS011;5294;49.410;8.698;2022-09-17T13:14:50;3.87;;;1.70;;
10493;SDS011;5294;49.410;8.698;2022-09-17T13:17:24;3.33;;;1.83;;
10493;SDS011;5294;49.410;8.698;2022-09-17T13:19:59;4.33;;;2.03;;
10493;SDS011;5294;49.410;8.698;2022-09-17T13:22:28;2.50;;;1.90;;
10493;SDS011;5294;49.410;8.698;2022-09-17T13:25:08;2.63;;;2.00;;
10493;SDS011;5294;49.410;8.698;2022-09-17T13:27:37;1.63;;;1.37;;
10493;SDS011;5294;49.410;8.698;2022-09-17T13:30:07;1.73;;;1.57;;
10493;SDS011;5294;49.410;8.698;2022-09-17T13:37:35;2.90;;;1.77;;
10493;SDS011;5294;49.410;8.698;2022-09-17T13:40:05;2.00;;;1.80;;
10493;SDS011;5294;49.410;8.698;2022-09-17T13:42:49;3.00;;;1.50;;
10493;SDS011;5294;49.410;8.698;2022-09-17T13:45:16;2.87;;;1.53;;
10493;SDS011;5294;49.410;8.698;2022-09-17T13:50:24;1.30;;;1.20;;
10493;SDS011;5294;49.410;8.698;2022-09-17T13:52:51;1.90;;;1.80;;
10493;SDS011;5294;49.410;8.698;2022-09-17T13:55:34;2.30;;;1.80;;
10493;SDS011;5294;49.410;8.698;2022-09-17T13:58:04;2.47;;;1.73;;
10493;SDS011;5294;49.410;8.698;2022-09-17T14:00:46;2.23;;;1.37;;
10493;SDS011;5294;49.410;8.698;2022-09-17T14:13:46;2.30;;;1.70;;
10493;SDS011;5294;49.410;8.698;2022-09-17T14:16:30;2.80;;;1.60;;
10493;SDS011;5294;49.410;8.698;2022-09-17T14:22:24;1.47;;;1.37;;
10493;SDS011;5294;49.410;8.698;2022-09-17T14:32:36;1.20;;;1.20;;
10493;SDS011;5294;49.410;8.698;2022-09-17T14:37:43;2.23;;;1.70;;
10493;SDS011;5294;49.410;8.698;2022-09-17T14:40:10;3.07;;;2.13;;
10493;SDS011;5294;49.410;8.698;2022-09-17T14:42:39;1.40;;;1.30;;
10493;SDS011;5294;49.410;8.698;2022-09-17T14:45:21;3.10;;;1.57;;
10493;SDS011;5294;49.410;8.698;2022-09-17T14:47:48;1.30;;;1.20;;
10493;SDS011;5294;49.410;8.698;2022-09-17T14:50:23;1.23;;;0.90;;
10493;SDS011;5294;49.410;8.698;2022-09-17T14:52:51;1.43;;;1.00;;
10493;SDS011;5294;49.410;8.698;2022-09-17T14:55:20;1.90;;;1.30;;
10493;SDS011;5294;49.410;8.698;2022-09-17T14:57:57;1.40;;;1.30;;
10493;SDS011;5294;49.410;8.698;2022-09-17T15:00:49;1.37;;;1.27;;
10493;SDS011;5294;49.410;8.698;2022-09-17T15:03:22;2.00;;;0.93;;
10493;SDS011;5294;49.410;8.698;2022-09-17T15:05:48;1.03;;;1.03;;
10493;SDS011;5294;49.410;8.698;2022-09-17T15:08:16;0.90;;;0.90;;
10493;SDS011;5294;49.410;8.698;2022-09-17T15:10:52;2.13;;;0.97;;
10493;SDS011;5294;49.410;8.698;2022-09-17T15:13:28;1.27;;;1.10;;
10493;SDS011;5294;49.410;8.698;2022-09-17T15:18:21;1.10;;;1.00;;
10493;SDS011;5294;49.410;8.698;2022-09-17T15:20:51;1.17;;;0.90;;
10493;SDS011;5294;49.410;8.698;2022-09-17T15:23:22;0.87;;;0.87;;
10493;SDS011;5294;49.410;8.698;2022-09-17T15:25:54;2.33;;;1.90;;
10493;SDS011;5294;49.410;8.698;2022-09-17T15:28:29;1.20;;;1.07;;
10493;SDS011;5294;49.410;8.698;2022-09-17T15:30:58;2.10;;;1.20;;
10493;SDS011;5294;49.410;8.698;2022-09-17T15:33:27;1.70;;;1.20;;
10493;SDS011;5294;49.410;8.698;2022-09-17T15:36:37;1.57;;;0.97;;
10493;SDS011;5294;49.410;8.698;2022-09-17T15:38:47;1.30;;;1.20;;
10493;SDS011;5294;49.410;8.698;2022-09-17T15:43:43;1.40;;;1.30;;
10493;SDS011;5294;49.410;8.698;2022-09-17T15:46:20;1.40;;;1.30;;
10493;SDS011;5294;49.410;8.698;2022-09-17T15:48:50;1.43;;;1.20;;
10493;SDS011;5294;49.410;8.698;2022-09-17T15:51:26;1.97;;;1.40;;
10493;SDS011;5294;49.410;8.698;2022-09-17T15:53:59;1.47;;;1.30;;
10493;SDS011;5294;49.410;8.698;2022-09-17T15:56:26;1.70;;;1.60;;
10493;SDS011;5294;49.410;8.698;2022-09-17T16:08:57;1.63;;;1.53;;
10493;SDS011;5294;49.410;8.698;2022-09-17T16:11:25;1.80;;;1.10;;
10493;SDS011;5294;49.410;8.698;2022-09-17T16:13:52;1.13;;;1.03;;
10493;SDS011;5294;49.410;8.698;2022-09-17T16:16:19;1.43;;;1.33;;
10493;SDS011;5294;49.410;8.698;2022-09-17T16:18:46;1.80;;;1.13;;
10493;SDS011;5294;49.410;8.698;2022-09-17T16:21:15;1.70;;;1.27;;
10493;SDS011;5294;49.410;8.698;2022-09-17T16:23:41;1.50;;;1.10;;
10493;SDS011;5294;49.410;8.698;2022-09-17T16:26:14;1.33;;;1.23;;
10493;SDS011;5294;49.410;8.698;2022-09-17T16:28:41;1.77;;;1.00;;
10493;SDS011;5294;49.410;8.698;2022-09-17T16:31:08;1.13;;;1.03;;
10493;SDS011;5294;49.410;8.698;2022-09-17T16:33:35;1.57;;;1.20;;
10493;SDS011;5294;49.410;8.698;2022-09-17T16:36:01;1.10;;;1.10;;
10493;SDS011;5294;49.410;8.698;2022-09-17T16:38:32;1.50;;;1.40;;
10493;SDS011;5294;49.410;8.698;2022-09-17T16:40:58;1.33;;;1.23;;
10493;SDS011;5294;49.410;8.698;2022-09-17T16:43:24;1.67;;;1.23;;
10493;SDS011;5294;49.410;8.698;2022-09-17T16:46:00;1.53;;;1.30;;
10493;SDS011;5294;49.410;8.698;2022-09-17T16:48:26;1.10;;;1.00;;
10493;SDS011;5294;49.410;8.698;2022-09-17T16:50:52;1.53;;;1.10;;
10493;SDS011;5294;49.410;8.698;2022-09-17T16:53:18;1.87;;;1.20;;
10493;SDS011;5294;49.410;8.698;2022-09-17T16:55:47;1.37;;;1.13;;
10493;SDS011;5294;49.410;8.698;2022-09-17T16:58:17;1.30;;;1.20;;
10493;SDS011;5294;49.410;8.698;2022-09-17T17:00:43;1.50;;;1.40;;
10493;SDS011;5294;49.410;8.698;2022-09-17T17:03:15;1.27;;;1.10;;
10493;SDS011;5294;49.410;8.698;2022-09-17T17:05:41;1.33;;;1.00;;
10493;SDS011;5294;49.410;8.698;2022-09-17T17:08:10;1.80;;;1.00;;
10493;SDS011;5294;49.410;8.698;2022-09-17T17:10:38;1.27;;;1.13;;
10493;SDS011;5294;49.410;8.698;2022-09-17T17:13:04;1.03;;;1.03;;
10493;SDS011;5294;49.410;8.698;2022-09-17T17:15:30;1.63;;;1.43;;
10493;SDS011;5294;49.410;8.698;2022-09-17T17:17:58;1.37;;;1.27;;
10493;SDS011;5294;49.410;8.698;2022-09-17T17:20:27;1.60;;;1.50;;
10493;SDS011;5294;49.410;8.698;2022-09-17T17:22:53;1.97;;;1.50;;
10493;SDS011;5294;49.410;8.698;2022-09-17T17:25:19;1.60;;;1.47;;
10493;SDS011;5294;49.410;8.698;2022-09-17T17:27:47;1.50;;;1.40;;
10493;SDS011;5294;49.410;8.698;2022-09-17T17:30:16;2.73;;;1.40;;
10493;SDS011;5294;49.410;8.698;2022-09-17T17:32:47;1.43;;;1.27;;
10493;SDS011;5294;49.410;8.698;2022-09-17T17:35:14;1.23;;;1.17;;
10493;SDS011;5294;49.410;8.698;2022-09-17T17:37:40;0.93;;;0.93;;
10493;SDS011;5294;49.410;8.698;2022-09-17T17:40:06;1.00;;;1.00;;
10493;SDS011;5294;49.410;8.698;2022-09-17T17:42:35;1.20;;;1.10;;
10493;SDS011;5294;49.410;8.698;2022-09-17T17:45:08;1.17;;;1.13;;
10493;SDS011;5294;49.410;8.698;2022-09-17T17:47:34;2.83;;;1.53;;
10493;SDS011;5294;49.410;8.698;2022-09-17T17:50:03;3.13;;;1.40;;
10493;SDS011;5294;49.410;8.698;2022-09-17T17:52:34;1.63;;;1.30;;
10493;SDS011;5294;49.410;8.698;2022-09-17T17:55:03;1.53;;;0.90;;
10493;SDS011;5294;49.410;8.698;2022-09-17T17:57:31;1.90;;;1.73;;
10493;SDS011;5294;49.410;8.698;2022-09-17T18:00:00;1.60;;;1.20;;
10493;SDS011;5294;49.410;8.698;2022-09-17T18:02:26;1.23;;;1.00;;
10493;SDS011;5294;49.410;8.698;2022-09-17T18:04:52;1.43;;;1.17;;
10493;SDS011;5294;49.410;8.698;2022-09-17T18:07:20;1.60;;;1.20;;
10493;SDS011;5294;49.410;8.698;2022-09-17T18:09:46;2.33;;;2.03;;
10493;SDS011;5294;49.410;8.698;2022-09-17T18:12:12;1.83;;;1.70;;
10493;SDS011;5294;49.410;8.698;2022-09-17T18:14:38;1.73;;;1.63;;
10493;SDS011;5294;49.410;8.698;2022-09-17T18:17:06;2.63;;;2.00;;
10493;SDS011;5294;49.410;8.698;2022-09-17T18:19:32;2.10;;;1.90;;
10493;SDS011;5294;49.410;8.698;2022-09-17T18:21:58;2.33;;;1.80;;
10493;SDS011;5294;49.410;8.698;2022-09-17T18:24:24;2.03;;;1.93;;
10493;SDS011;5294;49.410;8.698;2022-09-17T18:26:50;2.10;;;2.00;;
10493;SDS011;5294;49.410;8.698;2022-09-17T18:29:18;2.60;;;2.40;;
10493;SDS011;5294;49.410;8.698;2022-09-17T18:31:44;2.13;;;1.93;;
10493;SDS011;5294;49.410;8.698;2022-09-17T18:34:11;2.23;;;2.03;;